Time;durP1;ratioP1;P1;durP2;ratioP2;P2;SDS_P1;SDS_P2;PMS_P1;PMS_P2;Temp;Humidity;BMP_temperature;BMP_pressure;BME280_temperature;BME280_humidity;BME280_pressure;Samples;Min_cycle;Max_cycle;Signal;HPM_P1;HPM_P2
2022/07/03 00:01:59;;;;;;;10.68;7.95;;;;;;;22.13;63.86;95880.06;4990359;28;20397;-82
2022/07/03 00:04:25;;;;;;;11.02;7.18;;;;;;;22.07;63.66;95881.03;4987783;28;20037;-82
2022/07/03 00:06:50;;;;;;;9.45;7.53;;;;;;;22.08;63.04;95886.25;4989903;28;20022;-82
2022/07/03 00:09:15;;;;;;;8.05;7.25;;;;;;;21.95;63.32;95886.47;5004388;28;20034;-82
2022/07/03 00:11:42;;;;;;;15.27;7.90;;;;;;;21.95;63.37;95878.28;4989656;28;20038;-82
2022/07/03 00:14:07;;;;;;;8.65;7.10;;;;;;;21.80;63.10;95876.88;4989544;28;20029;-82
2022/07/03 00:16:33;;;;;;;11.15;7.90;;;;;;;21.79;63.12;95877.13;4989495;28;20404;-83
2022/07/03 00:18:58;;;;;;;12.02;7.72;;;;;;;21.79;62.71;95877.97;5008039;28;20029;-83
2022/07/03 00:21:29;;;;;;;11.15;7.82;;;;;;;21.72;62.88;95883.50;5021192;28;20080;-83
2022/07/03 00:24:13;;;;;;;10.52;7.75;;;;;;;21.33;64.11;95881.19;4991175;28;20033;-83
2022/07/03 00:26:39;;;;;;;10.77;7.85;;;;;;;21.50;63.80;95880.53;5004584;28;20497;-83
2022/07/03 00:29:04;;;;;;;9.60;7.63;;;;;;;21.54;63.31;95875.44;5007430;28;20028;-82
2022/07/03 00:31:32;;;;;;;10.57;7.32;;;;;;;21.57;63.12;95867.56;4992995;28;20030;-83
2022/07/03 00:33:58;;;;;;;10.43;6.93;;;;;;;21.61;63.63;95867.94;5009192;28;20030;-83
2022/07/03 00:36:30;;;;;;;8.30;7.20;;;;;;;21.65;63.46;95857.41;5009856;28;20054;-82
2022/07/03 00:38:55;;;;;;;11.95;7.05;;;;;;;21.58;63.57;95866.53;5009491;28;20026;-81
2022/07/03 00:41:25;;;;;;;12.60;7.15;;;;;;;21.51;63.79;95873.97;5011408;28;20026;-82
2022/07/03 00:43:50;;;;;;;8.95;7.03;;;;;;;21.55;64.03;95880.66;4991933;28;20520;-83
2022/07/03 00:46:16;;;;;;;12.98;7.85;;;;;;;21.56;63.77;95871.38;5010271;28;20037;-82
2022/07/03 00:48:41;;;;;;;12.88;7.55;;;;;;;21.56;63.62;95860.47;4976493;28;20505;-82
2022/07/03 00:51:07;;;;;;;10.93;7.30;;;;;;;21.56;63.71;95860.47;4992730;28;20431;-82
2022/07/03 00:53:33;;;;;;;12.00;7.93;;;;;;;21.62;63.58;95855.94;4993525;28;20354;-81
2022/07/03 00:55:58;;;;;;;11.98;7.22;;;;;;;21.55;63.07;95856.09;4991824;28;20030;-82
2022/07/03 00:58:24;;;;;;;8.95;7.22;;;;;;;21.55;63.17;95853.38;4993669;28;20113;-82
2022/07/03 01:00:51;;;;;;;10.48;7.20;;;;;;;21.45;62.96;95853.94;5008857;28;20045;-81
2022/07/03 01:03:17;;;;;;;9.00;7.65;;;;;;;21.38;63.58;95852.41;5009720;28;20026;-81
2022/07/03 01:05:45;;;;;;;11.93;7.13;;;;;;;21.34;64.24;95836.50;5008831;28;20029;-81
2022/07/03 01:08:19;;;;;;;12.52;7.35;;;;;;;21.30;64.52;95838.03;5010622;28;20109;-81
2022/07/03 01:10:57;;;;;;;11.43;7.53;;;;;;;21.21;64.58;95840.28;5010273;28;20029;-81
2022/07/03 01:13:51;;;;;;;9.30;7.10;;;;;;;21.22;64.55;95841.09;5008818;28;20034;-82
2022/07/03 01:16:40;;;;;;;12.13;6.65;;;;;;;21.15;64.81;95837.66;5010267;28;20095;-81
2022/07/03 01:19:24;;;;;;;10.85;7.93;;;;;;;21.10;65.11;95838.38;5009882;28;20026;-81
2022/07/03 01:22:01;;;;;;;11.80;7.93;;;;;;;21.11;65.00;95838.13;5008796;28;20025;-82
2022/07/03 01:24:32;;;;;;;14.80;8.30;;;;;;;21.12;65.29;95833.50;5009234;28;20078;-82
2022/07/03 01:27:00;;;;;;;14.43;8.05;;;;;;;21.15;64.81;95837.66;5008189;28;20034;-82
2022/07/03 01:29:34;;;;;;;10.02;8.25;;;;;;;21.12;65.09;95839.78;5009637;28;20570;-82
2022/07/03 01:32:00;;;;;;;11.98;8.18;;;;;;;21.17;65.13;95832.78;5007935;28;20477;-83
2022/07/03 01:34:25;;;;;;;10.18;8.00;;;;;;;21.16;65.38;95840.16;5008314;28;20432;-83
2022/07/03 01:36:51;;;;;;;12.45;8.98;;;;;;;21.08;64.98;95843.22;4992533;28;20431;-83
2022/07/03 01:39:17;;;;;;;12.32;8.25;;;;;;;20.98;65.19;95846.50;4991188;28;20088;-82
2022/07/03 01:41:45;;;;;;;10.77;8.40;;;;;;;20.75;65.67;95842.63;4992083;28;20026;-82
2022/07/03 01:44:11;;;;;;;12.07;8.27;;;;;;;20.83;65.18;95845.00;5006891;28;20114;-81
2022/07/03 01:46:37;;;;;;;11.13;8.10;;;;;;;20.89;65.21;95848.72;4976637;28;20177;-82
2022/07/03 01:49:03;;;;;;;10.68;7.53;;;;;;;20.91;65.01;95843.03;5007169;28;20519;-83
2022/07/03 01:51:28;;;;;;;9.18;7.45;;;;;;;20.96;64.93;95838.56;5008564;28;20030;-81
2022/07/03 01:53:54;;;;;;;9.05;7.72;;;;;;;21.00;64.56;95841.66;4991457;28;20496;-82
2022/07/03 01:56:21;;;;;;;10.68;7.05;;;;;;;21.03;64.71;95835.75;5007471;28;20025;-82
2022/07/03 01:58:47;;;;;;;10.60;7.63;;;;;;;21.08;64.58;95844.06;5008771;28;20064;-82
2022/07/03 02:01:20;;;;;;;11.90;7.82;;;;;;;21.10;64.36;95847.34;5007799;28;20030;-81
2022/07/03 02:03:51;;;;;;;10.25;7.70;;;;;;;21.12;64.06;95841.66;5008505;28;20076;-82
2022/07/03 02:06:36;;;;;;;8.48;7.32;;;;;;;21.08;64.51;95843.22;5006494;28;20030;-82
2022/07/03 02:09:06;;;;;;;10.77;7.88;;;;;;;21.10;64.40;95841.09;5007656;28;20038;-82
2022/07/03 02:11:36;;;;;;;10.52;8.25;;;;;;;21.11;64.46;95845.47;5024666;28;20497;-81
2022/07/03 02:14:12;;;;;;;11.05;8.80;;;;;;;21.11;64.49;95840.00;5006113;28;20030;-81
2022/07/03 02:16:44;;;;;;;12.40;8.15;;;;;;;21.05;64.59;95840.97;5009639;28;20524;-82
2022/07/03 02:19:10;;;;;;;12.30;8.07;;;;;;;20.99;64.46;95837.25;5007250;28;20164;-81
2022/07/03 02:21:36;;;;;;;13.85;8.50;;;;;;;20.96;64.97;95843.19;4991951;28;20065;-82
2022/07/03 02:24:03;;;;;;;11.18;8.00;;;;;;;20.91;64.89;95838.41;5007301;28;20397;-82
2022/07/03 02:26:33;;;;;;;12.63;8.77;;;;;;;20.93;64.91;95835.47;5007302;28;20435;-83
2022/07/03 02:29:02;;;;;;;18.90;9.38;;;;;;;20.94;64.80;95835.22;4992242;28;20030;-82
2022/07/03 02:31:27;;;;;;;10.25;8.50;;;;;;;20.94;64.92;95842.59;5005947;28;20029;-82
2022/07/03 02:33:58;;;;;;;18.15;9.32;;;;;;;20.92;64.59;95845.56;4991656;28;20038;-82
2022/07/03 02:36:24;;;;;;;10.65;9.00;;;;;;;20.84;65.00;95843.97;4989323;28;20533;-82
2022/07/03 02:38:53;;;;;;;9.73;8.68;;;;;;;20.83;65.13;95846.94;4991824;28;20496;-82
2022/07/03 02:41:22;;;;;;;12.48;8.68;;;;;;;20.82;65.13;95845.25;5006643;28;20408;-83
2022/07/03 02:44:01;;;;;;;12.50;8.82;;;;;;;20.83;65.17;95839.56;4990755;28;20030;-82
2022/07/03 02:49:48;;;;;;;11.82;8.43;;;;;;;20.72;65.86;95857.53;5007169;28;20477;-82
2022/07/03 02:52:28;;;;;;;13.43;8.73;;;;;;;20.75;64.32;95859.81;5001001;28;20146;-82
2022/07/03 02:54:55;;;;;;;11.02;7.85;;;;;;;20.75;64.62;95857.09;5008756;28;20045;-83
2022/07/03 02:57:22;;;;;;;19.02;8.70;;;;;;;20.73;63.98;95863.84;4989120;28;20172;-82
2022/07/03 03:00:00;;;;;;;15.00;8.95;;;;;;;20.71;64.16;95858.63;5007570;28;20033;-81
2022/07/03 03:02:44;;;;;;;11.65;9.05;;;;;;;20.73;64.38;95864.66;4989508;28;20029;-81
2022/07/03 03:05:26;;;;;;;13.85;9.25;;;;;;;20.69;64.34;95870.78;5008102;28;20052;-82
2022/07/03 03:07:52;;;;;;;18.58;8.68;;;;;;;20.61;64.56;95861.91;4992735;28;20112;-82
2022/07/03 03:10:18;;;;;;;12.68;8.82;;;;;;;20.59;64.30;95864.00;5005450;28;20112;-82
2022/07/03 03:12:46;;;;;;;9.70;8.52;;;;;;;20.60;64.23;95865.66;5007155;28;20044;-83
2022/07/03 03:15:12;;;;;;;11.65;8.77;;;;;;;20.65;64.14;95864.16;5005145;28;20453;-82
2022/07/03 03:17:45;;;;;;;10.20;8.82;;;;;;;20.62;64.13;95869.00;4990940;28;20052;-82
2022/07/03 03:20:18;;;;;;;18.35;10.73;;;;;;;20.62;64.57;95873.59;4973562;28;20026;-82
2022/07/03 03:22:55;;;;;;;14.75;9.88;;;;;;;20.61;64.48;95877.41;5006950;28;20099;-81
2022/07/03 03:25:21;;;;;;;15.02;9.20;;;;;;;20.52;64.75;95876.06;5008161;28;20068;-82
2022/07/03 03:27:46;;;;;;;16.42;9.20;;;;;;;20.53;64.43;95870.38;5006335;28;20037;-82
2022/07/03 03:30:12;;;;;;;11.05;9.52;;;;;;;20.52;64.75;95874.19;5007083;28;20022;-82
2022/07/03 03:32:38;;;;;;;15.07;8.93;;;;;;;20.55;65.20;95876.44;5004844;28;20037;-82
2022/07/03 03:35:05;;;;;;;12.82;9.55;;;;;;;20.60;65.10;95881.19;4990782;28;20034;-83
2022/07/03 03:37:30;;;;;;;14.52;9.63;;;;;;;20.63;64.70;95869.84;5005478;28;20109;-82
2022/07/03 03:39:56;;;;;;;15.35;8.98;;;;;;;20.67;64.57;95870.22;5007419;28;20018;-81
2022/07/03 03:42:21;;;;;;;12.43;9.65;;;;;;;20.72;64.52;95873.06;5006106;28;20026;-82
2022/07/03 03:44:47;;;;;;;11.93;9.07;;;;;;;20.75;64.35;95878.03;5006393;28;20113;-82
2022/07/03 03:47:12;;;;;;;12.82;9.32;;;;;;;20.78;64.13;95871.31;5006528;28;20079;-81
2022/07/03 03:49:38;;;;;;;12.93;9.35;;;;;;;20.78;64.10;95877.59;5004617;28;20049;-81
2022/07/03 03:52:04;;;;;;;16.50;9.55;;;;;;;20.74;64.24;95874.50;5006693;28;20404;-81
2022/07/03 03:54:29;;;;;;;14.05;9.48;;;;;;;20.76;64.08;95879.72;4988105;28;20092;-82
2022/07/03 03:56:55;;;;;;;13.10;9.10;;;;;;;20.78;64.43;95882.22;5006316;28;20026;-81
2022/07/03 03:59:20;;;;;;;16.45;9.23;;;;;;;20.74;64.39;95887.28;5005971;28;20418;-85
2022/07/03 04:01:47;;;;;;;14.52;9.75;;;;;;;20.78;64.62;95891.22;4972482;28;20075;-84
2022/07/03 04:04:17;;;;;;;11.77;10.45;;;;;;;20.84;64.03;95886.75;5006507;28;20018;-82
2022/07/03 04:06:43;;;;;;;13.68;9.98;;;;;;;20.83;64.31;95879.63;5004540;28;20060;-82
2022/07/03 04:09:09;;;;;;;15.35;10.10;;;;;;;20.89;63.58;95884.16;5007565;28;20032;-82
2022/07/03 04:11:34;;;;;;;16.40;9.85;;;;;;;20.95;63.63;95877.81;4987637;28;20033;-82
2022/07/03 04:13:59;;;;;;;14.68;10.18;;;;;;;21.00;63.61;95874.38;5006929;28;20049;-82
2022/07/03 04:16:25;;;;;;;13.63;9.63;;;;;;;21.03;63.96;95879.38;5006889;28;20030;-82
2022/07/03 04:18:50;;;;;;;14.82;10.35;;;;;;;21.01;64.79;95875.22;4991748;28;20026;-84
2022/07/03 04:21:16;;;;;;;17.27;10.02;;;;;;;21.03;64.83;95873.91;4975334;28;20396;-83
2022/07/03 04:23:44;;;;;;;17.33;10.40;;;;;;;21.11;64.20;95868.13;5004685;28;20236;-84
2022/07/03 04:26:10;;;;;;;14.25;10.05;;;;;;;21.24;63.76;95871.69;5008038;28;20030;-82
2022/07/03 04:28:35;;;;;;;13.70;9.80;;;;;;;21.34;62.80;95869.25;5005582;28;20377;-81
2022/07/03 04:31:01;;;;;;;13.93;10.23;;;;;;;21.43;62.99;95872.44;5006433;28;20033;-81
2022/07/03 04:33:26;;;;;;;16.35;10.93;;;;;;;21.48;63.59;95871.72;5004335;28;20133;-82
2022/07/03 04:35:52;;;;;;;15.88;10.95;;;;;;;21.51;63.51;95873.97;5007110;28;20108;-82
2022/07/03 04:38:17;;;;;;;12.35;9.88;;;;;;;21.64;63.64;95872.94;5007438;28;20033;-83
2022/07/03 04:40:43;;;;;;;11.52;10.25;;;;;;;21.79;63.28;95871.66;5021116;28;20030;-84
2022/07/03 04:43:08;;;;;;;14.02;9.80;;;;;;;21.90;63.09;95876.28;4989682;28;20041;-82
2022/07/03 04:45:34;;;;;;;14.00;9.73;;;;;;;22.01;62.19;95882.78;5005815;28;20045;-82
2022/07/03 04:47:59;;;;;;;15.23;10.48;;;;;;;22.14;62.32;95880.88;5005834;28;20034;-81
2022/07/03 04:50:25;;;;;;;11.45;10.02;;;;;;;22.21;62.16;95878.84;5004185;28;20026;-81
2022/07/03 04:52:50;;;;;;;10.07;9.00;;;;;;;22.34;61.65;95883.22;4989621;28;20026;-82
2022/07/03 04:55:15;;;;;;;12.48;8.80;;;;;;;22.47;61.00;95887.59;5004702;28;20385;-81
2022/07/03 04:57:42;;;;;;;10.55;7.85;;;;;;;22.58;61.01;95883.16;5005711;28;20123;-84
2022/07/03 05:00:08;;;;;;;10.15;8.15;;;;;;;22.70;60.63;95872.19;5007139;28;20022;-83
2022/07/03 05:02:34;;;;;;;11.68;8.95;;;;;;;22.82;59.24;95881.19;4987934;28;20456;-82
2022/07/03 05:04:59;;;;;;;9.77;8.38;;;;;;;22.76;58.99;95876.72;5005666;28;20082;-83
2022/07/03 05:07:24;;;;;;;9.50;8.43;;;;;;;22.79;58.78;95870.75;5003828;28;20096;-83
2022/07/03 05:09:50;;;;;;;13.38;9.00;;;;;;;22.82;58.55;95873.00;5005822;28;20072;-81
2022/07/03 05:12:15;;;;;;;11.07;8.43;;;;;;;22.81;59.27;95878.72;5003994;28;20431;-84
2022/07/03 05:14:42;;;;;;;11.75;8.63;;;;;;;22.72;59.12;95873.63;5007444;28;20477;-82
2022/07/03 05:17:08;;;;;;;10.65;8.18;;;;;;;22.85;59.15;95868.94;5009472;28;20026;-83
2022/07/03 05:19:33;;;;;;;12.55;9.00;;;;;;;22.82;58.74;95872.16;5008289;28;20042;-83
2022/07/03 05:21:59;;;;;;;14.52;8.82;;;;;;;22.93;59.05;95871.28;5009062;28;20463;-86
2022/07/03 05:24:24;;;;;;;13.73;8.52;;;;;;;23.09;58.81;95869.63;5008987;28;20037;-83
2022/07/03 05:26:50;;;;;;;13.77;8.88;;;;;;;23.11;58.76;95876.75;5010608;28;20040;-82
2022/07/03 05:29:16;;;;;;;16.00;9.75;;;;;;;23.28;58.07;95872.13;5006982;28;20022;-83
2022/07/03 05:31:41;;;;;;;10.10;7.90;;;;;;;23.43;57.90;95877.06;5009276;28;20030;-83
2022/07/03 05:34:08;;;;;;;10.20;7.75;;;;;;;23.62;57.52;95876.00;5007194;28;20025;-83
2022/07/03 05:36:33;;;;;;;10.38;7.80;;;;;;;23.76;57.30;95874.59;4992212;28;20722;-82
2022/07/03 05:41:43;;;;;;;11.75;8.52;;;;;;;23.48;56.84;95875.50;5007602;28;20028;-84
2022/07/03 05:44:08;;;;;;;9.93;8.88;;;;;;;23.68;56.85;95880.47;5008832;28;20030;-82
2022/07/03 05:46:34;;;;;;;9.40;8.40;;;;;;;23.70;57.17;95883.78;5006802;28;20042;-83
2022/07/03 05:49:00;;;;;;;11.52;8.27;;;;;;;23.81;56.35;95884.78;5010272;28;20028;-83
2022/07/03 05:51:25;;;;;;;9.27;8.32;;;;;;;23.58;56.81;95883.88;5023822;28;20515;-84
2022/07/03 05:53:50;;;;;;;12.30;8.95;;;;;;;23.62;56.36;95882.28;5008693;28;20042;-82
2022/07/03 05:56:16;;;;;;;14.35;9.02;;;;;;;23.75;56.11;95875.63;5008194;28;20378;-83
2022/07/03 05:58:41;;;;;;;10.70;8.55;;;;;;;23.92;55.94;95885.75;5008252;28;20014;-83
2022/07/03 06:01:07;;;;;;;10.13;8.82;;;;;;;24.05;55.71;95879.09;5008797;28;20044;-84
2022/07/03 06:03:34;;;;;;;9.48;8.32;;;;;;;23.95;55.64;95879.78;5006847;28;20504;-85
2022/07/03 06:06:00;;;;;;;11.82;9.57;;;;;;;23.84;55.01;95870.59;4992629;28;20037;-84
2022/07/03 06:08:25;;;;;;;9.55;8.55;;;;;;;23.79;55.04;95871.34;5006642;28;20033;-84
2022/07/03 06:10:51;;;;;;;10.90;8.75;;;;;;;24.15;55.08;95870.19;5010015;28;20899;-83
2022/07/03 06:13:16;;;;;;;12.40;8.65;;;;;;;24.20;54.63;95867.53;5023500;28;20026;-83
2022/07/03 06:15:42;;;;;;;8.98;8.07;;;;;;;24.44;54.76;95878.22;5007829;28;20031;-83
2022/07/03 06:18:07;;;;;;;10.70;7.78;;;;;;;24.71;54.72;95874.72;5008238;28;20022;-83
2022/07/03 06:20:33;;;;;;;12.20;7.90;;;;;;;24.84;54.34;95872.66;5008047;28;20030;-83
2022/07/03 06:22:58;;;;;;;9.70;8.02;;;;;;;24.96;54.29;95875.28;5008400;28;20413;-82
2022/07/03 06:25:24;;;;;;;9.05;7.80;;;;;;;25.08;54.17;95878.72;5006447;28;20034;-86
2022/07/03 06:27:49;;;;;;;11.85;8.60;;;;;;;25.21;54.02;95882.94;4991474;28;20037;-83
2022/07/03 06:30:14;;;;;;;11.82;8.20;;;;;;;25.22;53.54;95884.59;5007873;28;20507;-83
2022/07/03 06:32:40;;;;;;;10.40;8.40;;;;;;;25.28;52.90;95886.28;5008127;28;20029;-82
2022/07/03 06:35:06;;;;;;;11.00;8.55;;;;;;;25.43;51.36;95882.03;5007226;28;20073;-84
2022/07/03 06:37:31;;;;;;;14.20;8.00;;;;;;;25.34;50.61;95881.69;5006746;28;20022;-83
2022/07/03 06:39:57;;;;;;;11.05;7.43;;;;;;;25.46;50.64;95884.25;5008958;28;20030;-83
2022/07/03 06:42:23;;;;;;;10.32;7.78;;;;;;;25.58;51.19;95875.84;5005585;28;20084;-82
2022/07/03 06:44:48;;;;;;;9.65;8.18;;;;;;;25.68;51.98;95880.63;5007494;28;20037;-83
2022/07/03 06:47:13;;;;;;;8.98;8.07;;;;;;;25.68;51.43;95880.63;5005815;28;20536;-83
2022/07/03 06:49:39;;;;;;;11.45;8.38;;;;;;;25.84;50.30;95877.97;5007718;28;20151;-83
2022/07/03 06:52:04;;;;;;;11.38;7.82;;;;;;;25.70;51.16;95875.69;5006315;28;20037;-85
2022/07/03 06:54:30;;;;;;;9.95;8.63;;;;;;;25.67;51.15;95874.28;4990882;28;20030;-83
2022/07/03 06:56:55;;;;;;;11.68;7.93;;;;;;;25.58;50.52;95875.00;5007707;28;20033;-83
2022/07/03 06:59:21;;;;;;;9.27;7.63;;;;;;;25.44;51.21;95869.94;4989571;28;20583;-82
2022/07/03 07:01:46;;;;;;;11.07;8.32;;;;;;;25.44;50.20;95864.47;4975295;28;20507;-83
2022/07/03 07:04:12;;;;;;;11.00;8.27;;;;;;;25.24;51.83;95865.97;5006255;28;20029;-83
2022/07/03 07:06:37;;;;;;;9.15;8.25;;;;;;;25.04;52.73;95864.69;4990985;28;20026;-83
2022/07/03 07:09:03;;;;;;;9.13;7.88;;;;;;;24.98;54.00;95871.19;5005864;28;20026;-83
2022/07/03 07:11:28;;;;;;;9.50;7.95;;;;;;;25.00;51.57;95863.56;5007030;28;20022;-83
2022/07/03 07:13:54;;;;;;;11.10;8.35;;;;;;;24.89;51.79;95859.84;5006285;28;20029;-83
2022/07/03 07:16:19;;;;;;;9.50;8.23;;;;;;;24.96;52.07;95850.59;4990406;28;20072;-84
2022/07/03 07:18:45;;;;;;;9.48;8.57;;;;;;;24.97;51.83;95844.88;5007126;28;20030;-81
2022/07/03 07:21:11;;;;;;;10.32;7.75;;;;;;;25.01;52.44;95839.66;4989363;28;20026;-83
2022/07/03 07:23:36;;;;;;;9.90;7.65;;;;;;;25.10;52.53;95848.25;5007469;28;20076;-83
2022/07/03 07:26:02;;;;;;;11.95;8.10;;;;;;;25.18;51.82;95853.28;5004955;28;20040;-83
2022/07/03 07:28:28;;;;;;;10.88;8.05;;;;;;;25.10;52.26;95845.53;5006945;28;20030;-83
2022/07/03 07:30:55;;;;;;;10.25;7.53;;;;;;;25.15;52.11;95851.88;5021823;28;20026;-83
2022/07/03 07:33:20;;;;;;;8.20;7.40;;;;;;;25.29;52.31;95849.50;4990588;28;20109;-83
2022/07/03 07:35:46;;;;;;;10.93;8.38;;;;;;;25.46;52.74;95854.06;5006120;28;20568;-84
2022/07/03 07:38:11;;;;;;;12.52;8.48;;;;;;;25.54;51.10;95842.59;4972475;28;20030;-84
2022/07/03 07:40:37;;;;;;;9.07;7.80;;;;;;;25.64;50.48;95843.78;5006350;28;20530;-85
2022/07/03 07:43:02;;;;;;;8.98;8.07;;;;;;;25.74;51.93;95838.38;4988883;28;20523;-84
2022/07/03 07:45:28;;;;;;;10.65;8.40;;;;;;;25.90;50.42;95842.03;5006911;28;20026;-84
2022/07/03 07:47:53;;;;;;;10.60;8.10;;;;;;;25.98;48.86;95840.72;4988183;28;20088;-83
2022/07/03 07:50:19;;;;;;;10.88;8.20;;;;;;;25.95;48.76;95835.75;4974587;28;20026;-83
2022/07/03 07:52:44;;;;;;;12.73;7.75;;;;;;;25.98;49.17;95837.97;4988868;28;20040;-84
2022/07/03 07:55:09;;;;;;;10.20;7.30;;;;;;;26.06;50.73;95842.13;5006068;28;20459;-84
2022/07/03 07:57:36;;;;;;;11.60;8.18;;;;;;;26.11;51.14;95835.81;4989781;28;20030;-85
2022/07/03 08:00:09;;;;;;;8.65;7.40;;;;;;;25.93;50.12;95835.19;4988392;28;20033;-84
2022/07/03 08:05:36;;;;;;;8.55;7.70;;;;;;;26.26;47.31;95824.06;4990661;28;20519;-83
2022/07/03 08:08:14;;;;;;;8.85;7.20;;;;;;;26.25;48.59;95830.66;5007009;28;20060;-84
2022/07/03 08:10:48;;;;;;;11.43;7.80;;;;;;;26.40;48.89;95828.00;5010858;28;20100;-84
2022/07/03 08:13:14;;;;;;;11.48;7.72;;;;;;;26.64;49.18;95829.44;5004509;28;20032;-84
2022/07/03 08:15:40;;;;;;;10.10;8.02;;;;;;;26.81;49.17;95822.91;5005952;28;20405;-83
2022/07/03 08:18:05;;;;;;;10.65;8.07;;;;;;;26.88;47.11;95817.94;5004326;28;20794;-84
2022/07/03 08:20:31;;;;;;;13.20;8.52;;;;;;;26.85;47.74;95815.75;5006145;28;20025;-84
2022/07/03 08:22:57;;;;;;;12.93;7.60;;;;;;;26.83;47.35;95827.03;4988086;28;20049;-84
2022/07/03 08:25:23;;;;;;;8.35;7.22;;;;;;;26.94;46.72;95816.03;5005646;28;20049;-84
2022/07/03 08:27:48;;;;;;;12.63;7.90;;;;;;;26.97;46.67;95826.50;4989100;28;20076;-83
2022/07/03 08:30:17;;;;;;;10.93;7.68;;;;;;;26.89;47.22;95823.19;5020598;28;20062;-84
2022/07/03 08:32:43;;;;;;;8.88;7.30;;;;;;;26.86;46.69;95823.72;5006948;28;20526;-85
2022/07/03 08:35:09;;;;;;;8.88;7.57;;;;;;;27.07;45.83;95823.78;4971220;28;20042;-84
2022/07/03 08:37:34;;;;;;;13.25;7.32;;;;;;;27.12;46.54;95828.47;5006087;28;20144;-84
2022/07/03 08:40:01;;;;;;;10.43;7.28;;;;;;;27.27;47.70;95825.72;4987850;28;20041;-84
2022/07/03 08:42:26;;;;;;;13.02;8.02;;;;;;;27.32;47.06;95826.81;4989935;28;20109;-83
2022/07/03 08:44:52;;;;;;;11.30;8.15;;;;;;;27.31;46.02;95814.16;4988777;28;20389;-85
2022/07/03 08:47:17;;;;;;;9.02;7.60;;;;;;;27.33;47.10;95822.97;4988564;28;20477;-84
2022/07/03 08:49:43;;;;;;;9.48;7.75;;;;;;;27.26;47.81;95813.06;5006223;28;20033;-84
2022/07/03 08:52:10;;;;;;;11.27;7.63;;;;;;;27.30;47.69;95818.00;5007758;28;20033;-83
2022/07/03 08:54:36;;;;;;;11.48;8.18;;;;;;;27.06;47.37;95815.78;4993928;28;20057;-84
2022/07/03 08:57:02;;;;;;;8.13;7.32;;;;;;;27.36;47.20;95811.38;5007759;28;20033;-85
2022/07/03 08:59:37;;;;;;;8.32;7.32;;;;;;;27.49;46.22;95816.34;5009768;28;20025;-85
2022/07/03 09:02:04;;;;;;;7.90;6.68;;;;;;;27.39;46.95;95813.63;5008380;28;20409;-85
2022/07/03 09:04:30;;;;;;;8.95;7.18;;;;;;;27.37;47.01;95811.16;4992512;28;20030;-85
2022/07/03 09:06:56;;;;;;;11.00;7.32;;;;;;;27.47;45.94;95813.03;4992803;28;20033;-85
2022/07/03 09:09:22;;;;;;;8.18;7.22;;;;;;;27.62;48.71;95811.38;4975039;28;20025;-84
2022/07/03 09:11:47;;;;;;;8.70;6.82;;;;;;;27.62;46.00;95809.44;4976764;28;20029;-85
2022/07/03 09:14:13;;;;;;;11.07;6.82;;;;;;;27.71;46.35;95811.69;5007209;28;20030;-84
2022/07/03 09:16:38;;;;;;;9.57;6.88;;;;;;;27.79;44.90;95811.13;4992815;28;20432;-84
2022/07/03 09:19:04;;;;;;;10.45;6.88;;;;;;;27.75;46.52;95807.25;5008680;28;20022;-84
2022/07/03 09:21:40;;;;;;;8.63;6.90;;;;;;;27.69;44.74;95800.09;5010244;28;20026;-84
2022/07/03 09:24:06;;;;;;;6.97;5.97;;;;;;;27.79;43.97;95802.00;5008494;28;20034;-85
2022/07/03 09:26:32;;;;;;;10.18;6.05;;;;;;;27.79;44.21;95797.34;4991157;28;20064;-84
2022/07/03 09:28:58;;;;;;;6.50;5.88;;;;;;;27.91;43.76;95799.78;5010429;28;20030;-84
2022/07/03 09:31:24;;;;;;;7.25;5.88;;;;;;;27.91;42.95;95807.22;5007044;28;20080;-83
2022/07/03 09:34:00;;;;;;;8.23;6.00;;;;;;;27.97;42.99;95798.66;5010600;28;20072;-82
2022/07/03 09:36:43;;;;;;;10.10;5.65;;;;;;;28.07;44.04;95797.00;4990844;28;20050;-84
2022/07/03 09:39:20;;;;;;;9.18;5.47;;;;;;;28.12;42.95;95794.19;5009230;28;20566;-85
2022/07/03 09:41:55;;;;;;;6.80;5.38;;;;;;;28.16;42.14;95789.78;5009782;28;20073;-84
2022/07/03 09:44:46;;;;;;;6.20;5.40;;;;;;;28.19;41.30;95782.88;5006632;28;20069;-84
2022/07/03 09:47:18;;;;;;;6.30;4.93;;;;;;;28.24;41.37;95785.59;5008816;28;20065;-84
2022/07/03 09:49:44;;;;;;;;;;;;;;;28.24;40.43;95785.59;5008251;28;20076;-83
2022/07/03 09:52:28;;;;;;;6.70;4.90;;;;;;;28.30;40.39;95778.13;4990851;28;19914;-83
2022/07/03 09:54:55;;;;;;;5.43;4.93;;;;;;;28.40;41.97;95778.13;5008804;28;20029;-84
2022/07/03 09:57:20;;;;;;;6.60;5.55;;;;;;;28.46;40.12;95770.63;5006249;28;20034;-84
2022/07/03 09:59:46;;;;;;;7.28;5.40;;;;;;;28.49;41.37;95770.91;5008444;28;20104;-84
2022/07/03 10:02:11;;;;;;;7.18;5.07;;;;;;;28.59;40.09;95771.94;4989124;28;20022;-84
2022/07/03 10:04:37;;;;;;;7.45;4.93;;;;;;;28.61;40.15;95778.00;4991882;28;20036;-83
2022/07/03 10:07:03;;;;;;;7.07;4.78;;;;;;;28.65;40.48;95776.31;5007406;28;20026;-84
2022/07/03 10:09:33;;;;;;;6.13;5.50;;;;;;;28.78;39.92;95760.25;4995808;28;20032;-83
2022/07/03 10:11:59;;;;;;;8.82;5.25;;;;;;;28.85;39.07;95760.72;5007829;28;20116;-83
2022/07/03 10:14:26;;;;;;;9.25;4.95;;;;;;;28.92;39.85;95764.00;4989820;28;20041;-85
2022/07/03 10:16:52;;;;;;;7.60;5.03;;;;;;;28.85;38.73;95761.56;5013992;28;20033;-83
2022/07/03 10:19:20;;;;;;;5.57;5.07;;;;;;;28.88;39.56;95762.91;5009297;28;20113;-83
2022/07/03 10:21:53;;;;;;;6.57;5.25;;;;;;;28.91;38.20;95753.22;4991667;28;20495;-84
2022/07/03 10:24:19;;;;;;;6.22;4.90;;;;;;;28.91;39.32;95762.34;5006834;28;20025;-84
2022/07/03 10:26:45;;;;;;;8.70;5.25;;;;;;;28.97;38.26;95755.69;5006809;28;20030;-84
2022/07/03 10:29:10;;;;;;;8.32;5.28;;;;;;;28.98;39.48;95751.84;5007413;28;20092;-83
2022/07/03 10:31:39;;;;;;;7.65;4.90;;;;;;;29.03;39.76;95741.88;5005986;28;20026;-83
2022/07/03 10:34:05;;;;;;;5.78;5.10;;;;;;;29.16;39.87;95741.22;4975118;28;20120;-84
2022/07/03 10:36:31;;;;;;;8.13;4.97;;;;;;;29.12;38.23;95735.44;5005188;28;20311;-83
2022/07/03 10:38:56;;;;;;;6.78;4.80;;;;;;;29.19;39.62;95724.06;5008876;28;20033;-82
2022/07/03 10:47:39;;;;;;;5.53;4.60;;;;;;;29.33;39.74;95728.88;5007815;28;20122;-83
2022/07/03 10:50:10;;;;;;;5.47;4.47;;;;;;;29.42;39.61;95729.09;5006292;28;20079;-84
2022/07/03 10:52:35;;;;;;;6.05;4.45;;;;;;;29.43;39.90;95730.72;5006599;28;20025;-84
2022/07/03 10:55:03;;;;;;;8.38;4.72;;;;;;;29.29;37.76;95714.03;5007101;28;20058;-83
2022/07/03 10:57:28;;;;;;;5.43;4.75;;;;;;;29.22;38.31;95715.19;4989009;28;20481;-85
2022/07/03 10:59:53;;;;;;;8.20;4.50;;;;;;;29.14;37.94;95717.75;4974600;28;20033;-84
2022/07/03 11:02:40;;;;;;;7.50;4.40;;;;;;;29.16;38.82;95708.06;5005243;28;20037;-84
2022/07/03 11:05:09;;;;;;;6.93;4.15;;;;;;;29.11;37.32;95703.44;5008385;28;20029;-83
2022/07/03 11:07:38;;;;;;;8.00;4.50;;;;;;;29.21;37.60;95710.75;5005686;28;20195;-84
2022/07/03 11:10:13;;;;;;;7.55;4.55;;;;;;;29.34;36.92;95708.47;5005741;28;20872;-84
2022/07/03 11:13:00;;;;;;;4.80;4.05;;;;;;;29.41;35.68;95695.13;5007568;28;20030;-83
2022/07/03 11:15:32;;;;;;;5.32;4.30;;;;;;;29.47;34.95;95704.19;5006412;28;20034;-84
2022/07/03 11:18:14;;;;;;;5.35;4.75;;;;;;;29.50;35.63;95692.53;5008001;28;20407;-84
2022/07/03 11:20:42;;;;;;;9.20;4.30;;;;;;;29.63;34.77;95699.34;5006021;28;20030;-84
2022/07/03 11:23:26;;;;;;;10.73;3.83;;;;;;;29.60;32.30;95697.13;5006886;28;20033;-82
2022/07/03 11:25:52;;;;;;;4.72;3.65;;;;;;;29.66;31.41;95689.63;5006705;28;20071;-83
2022/07/03 11:28:47;;;;;;;4.68;4.18;;;;;;;29.79;32.46;95686.16;5005395;28;20030;-83
2022/07/03 11:31:19;;;;;;;6.72;4.68;;;;;;;29.83;33.07;95683.63;5006660;28;20133;-84
2022/07/03 11:33:47;;;;;;;5.05;4.10;;;;;;;29.88;31.93;95680.78;5007346;28;20026;-85
2022/07/03 11:36:16;;;;;;;7.38;4.13;;;;;;;29.94;33.46;95682.38;5005246;28;20050;-83
2022/07/03 11:38:42;;;;;;;5.85;4.00;;;;;;;30.05;32.37;95677.53;5007527;28;20026;-85
2022/07/03 11:41:09;;;;;;;5.95;3.80;;;;;;;30.16;33.61;95677.41;4988712;28;20091;-84
2022/07/03 11:43:34;;;;;;;4.25;3.72;;;;;;;30.13;32.39;95670.53;5006713;28;20030;-82
2022/07/03 11:46:00;;;;;;;4.28;3.75;;;;;;;30.15;32.44;95673.00;5004575;28;20028;-85
2022/07/03 11:48:26;;;;;;;5.30;4.10;;;;;;;30.11;32.90;95668.03;4973574;28;20057;-84